Kempsford, United Kingdom

3:16 AM BST on July 24, 2017 (GMT +0100)
Kempsford, Gloucestershire | | Change Station

Elev 256 ft 51.67 °N, 1.77 °W | Updated 7 seconds ago

Overcast
Overcast
59.9 °F
Feels Like 59.9 °F
N
11.2
Wind Variable Wind from NW
Gusts 12.3 mph

Today
High -- | Low -- °F
--% Chance of Precip.
Yesterday
High -- | Low -- °F
Precip. -- in
Pressure 29.86 in
Visibility 2.5 miles
Clouds Mostly Cloudy 1000 ft
Dew Point 56 °F
Humidity 86%
Rainfall 0.00 in
Snow Depth Not available.
5:18 AM 9:07 PM
New Moon, 1% visible
SPECI EGVN 240200Z 29005KT 4000 -RADZ BKN010 14/14 Q1011 GRN TEMPO 6000 -RA GRN
Pressure 29.86 in
Visibility 2.5 miles
Clouds Mostly Cloudy 1000 ft
Dew Point 56 °F
Humidity 86%
Rainfall 0.00 in
Snow Depth Not available.
5:18 AM 9:07 PM
New Moon, 1% visible
SPECI EGVN 240200Z 29005KT 4000 -RADZ BKN010 14/14 Q1011 GRN TEMPO 6000 -RA GRN

Get Severe Weather Alerts

Thanks for signing up!

Be on the lookout for a verification email in your inbox.

You'll start receiving the daily forecast at 6 AM.

×

10-Day Weather Forecast

×

Almanac

Astronomy

Jul. 24, 2017 Rise Set
Actual Time
Civil Twilight
Nautical Twilight
Astronomical Twilight
Moon
Length of Visible Light
Length of Day
Tomorrow will be .
, % of the Moon is Illuminated

Today's Extremes

Country Highs Country Lows

Community

WunderPhotos

Category 6

Welcome to Category 6. This is the collective home for Weather Underground's featured writeups by Dr. Jeff Masters (right), Bob Henson (left), Chris Burt, and other regular contributors.

Nearby

Air Quality

  Air Quality AQ Index Pollutant
Not available.

Snow Depth

Station Depth Elevation

Earthquake Activity

City Distance Mag. Time & Date
Minimum magnitude displayed is 2.5.

Coastal Water Temperatures

Place Temperature

Stations

Nearby Weather Stations

Station Location Temp. Windchill Dew Point Humidity Wind Precip. Elev Updated Type